sensor_id;sensor_type;location;lat;lon;timestamp;temperature;humidity
19174;DHT22;9719;49.322;8.536;2023-05-07T00:02:52;16.30;99.90
19174;DHT22;9719;49.322;8.536;2023-05-07T00:07:54;16.30;99.90
19174;DHT22;9719;49.322;8.536;2023-05-07T00:12:57;16.30;99.90
19174;DHT22;9719;49.322;8.536;2023-05-07T00:17:58;16.40;99.90
19174;DHT22;9719;49.322;8.536;2023-05-07T00:23:00;16.40;99.90
19174;DHT22;9719;49.322;8.536;2023-05-07T00:28:03;16.40;99.90
19174;DHT22;9719;49.322;8.536;2023-05-07T00:33:05;16.50;99.90
19174;DHT22;9719;49.322;8.536;2023-05-07T00:38:06;16.50;99.90
19174;DHT22;9719;49.322;8.536;2023-05-07T00:43:09;16.40;99.90
19174;DHT22;9719;49.322;8.536;2023-05-07T00:48:11;16.40;99.90
19174;DHT22;9719;49.322;8.536;2023-05-07T00:53:14;16.30;99.90
19174;DHT22;9719;49.322;8.536;2023-05-07T00:58:17;16.30;99.90
19174;DHT22;9719;49.322;8.536;2023-05-07T01:03:18;16.20;99.90
19174;DHT22;9719;49.322;8.536;2023-05-07T01:08:20;16.20;99.90
19174;DHT22;9719;49.322;8.536;2023-05-07T01:13:27;16.10;99.90
19174;DHT22;9719;49.322;8.536;2023-05-07T01:18:29;16.10;99.90
19174;DHT22;9719;49.322;8.536;2023-05-07T01:23:33;16.00;99.90
19174;DHT22;9719;49.322;8.536;2023-05-07T01:28:36;16.10;99.90
19174;DHT22;9719;49.322;8.536;2023-05-07T01:33:38;16.00;99.90
19174;DHT22;9719;49.322;8.536;2023-05-07T01:38:43;16.00;99.90
19174;DHT22;9719;49.322;8.536;2023-05-07T01:43:46;16.00;99.90
19174;DHT22;9719;49.322;8.536;2023-05-07T01:48:49;15.80;99.90
19174;DHT22;9719;49.322;8.536;2023-05-07T01:53:52;15.80;99.90
19174;DHT22;9719;49.322;8.536;2023-05-07T01:58:54;15.80;99.90
19174;DHT22;9719;49.322;8.536;2023-05-07T02:03:56;15.80;99.90
19174;DHT22;9719;49.322;8.536;2023-05-07T02:08:59;15.70;99.90
19174;DHT22;9719;49.322;8.536;2023-05-07T02:14:00;15.70;99.90
19174;DHT22;9719;49.322;8.536;2023-05-07T02:19:02;15.60;99.90
19174;DHT22;9719;49.322;8.536;2023-05-07T02:24:05;15.60;99.90
19174;DHT22;9719;49.322;8.536;2023-05-07T02:29:07;15.50;99.90
19174;DHT22;9719;49.322;8.536;2023-05-07T02:34:09;15.40;99.90
19174;DHT22;9719;49.322;8.536;2023-05-07T02:39:12;15.40;99.90
19174;DHT22;9719;49.322;8.536;2023-05-07T02:44:14;15.30;99.90
19174;DHT22;9719;49.322;8.536;2023-05-07T02:49:16;15.20;99.90
19174;DHT22;9719;49.322;8.536;2023-05-07T02:54:19;15.10;99.90
19174;DHT22;9719;49.322;8.536;2023-05-07T02:59:20;15.10;99.90
19174;DHT22;9719;49.322;8.536;2023-05-07T03:04:22;15.10;99.90
19174;DHT22;9719;49.322;8.536;2023-05-07T03:09:25;15.10;99.90
19174;DHT22;9719;49.322;8.536;2023-05-07T03:14:26;15.10;99.90
19174;DHT22;9719;49.322;8.536;2023-05-07T03:19:28;15.10;99.90
19174;DHT22;9719;49.322;8.536;2023-05-07T03:24:32;15.10;99.90
19174;DHT22;9719;49.322;8.536;2023-05-07T03:29:33;15.00;99.90
19174;DHT22;9719;49.322;8.536;2023-05-07T03:34:35;14.90;99.90
19174;DHT22;9719;49.322;8.536;2023-05-07T03:39:38;14.80;99.90
19174;DHT22;9719;49.322;8.536;2023-05-07T03:44:40;14.80;99.90
19174;DHT22;9719;49.322;8.536;2023-05-07T03:49:41;14.70;99.90
19174;DHT22;9719;49.322;8.536;2023-05-07T03:54:44;14.70;99.90
19174;DHT22;9719;49.322;8.536;2023-05-07T03:59:46;14.60;99.90
19174;DHT22;9719;49.322;8.536;2023-05-07T04:04:48;14.60;99.90
19174;DHT22;9719;49.322;8.536;2023-05-07T04:09:51;14.50;99.90
19174;DHT22;9719;49.322;8.536;2023-05-07T04:14:53;14.50;99.90
19174;DHT22;9719;49.322;8.536;2023-05-07T04:19:55;14.60;99.90
19174;DHT22;9719;49.322;8.536;2023-05-07T04:24:58;14.60;99.90
19174;DHT22;9719;49.322;8.536;2023-05-07T04:30:00;14.70;99.90
19174;DHT22;9719;49.322;8.536;2023-05-07T04:35:02;14.80;99.90
19174;DHT22;9719;49.322;8.536;2023-05-07T04:40:07;14.90;99.90
19174;DHT22;9719;49.322;8.536;2023-05-07T04:45:09;15.00;99.90
19174;DHT22;9719;49.322;8.536;2023-05-07T04:50:12;15.20;99.90
19174;DHT22;9719;49.322;8.536;2023-05-07T04:55:15;15.40;99.90
19174;DHT22;9719;49.322;8.536;2023-05-07T05:00:17;15.60;99.90
19174;DHT22;9719;49.322;8.536;2023-05-07T05:05:20;15.70;99.90
19174;DHT22;9719;49.322;8.536;2023-05-07T05:10:22;15.90;99.90
19174;DHT22;9719;49.322;8.536;2023-05-07T05:15:25;16.10;99.90
19174;DHT22;9719;49.322;8.536;2023-05-07T05:20:26;16.30;99.90
19174;DHT22;9719;49.322;8.536;2023-05-07T05:25:29;16.50;99.90
19174;DHT22;9719;49.322;8.536;2023-05-07T05:30:31;16.70;99.90
19174;DHT22;9719;49.322;8.536;2023-05-07T05:35:32;16.90;99.90
19174;DHT22;9719;49.322;8.536;2023-05-07T05:40:37;17.00;99.90
19174;DHT22;9719;49.322;8.536;2023-05-07T05:45:38;17.10;99.90
19174;DHT22;9719;49.322;8.536;2023-05-07T05:50:42;17.30;99.90
19174;DHT22;9719;49.322;8.536;2023-05-07T05:55:45;17.40;99.90
19174;DHT22;9719;49.322;8.536;2023-05-07T06:00:47;17.60;99.90
19174;DHT22;9719;49.322;8.536;2023-05-07T06:05:48;17.80;99.90
19174;DHT22;9719;49.322;8.536;2023-05-07T06:10:51;17.90;99.90
19174;DHT22;9719;49.322;8.536;2023-05-07T06:15:53;18.00;99.90
19174;DHT22;9719;49.322;8.536;2023-05-07T06:20:55;18.10;99.90
19174;DHT22;9719;49.322;8.536;2023-05-07T06:25:58;18.20;99.90
19174;DHT22;9719;49.322;8.536;2023-05-07T06:31:11;18.20;99.90
19174;DHT22;9719;49.322;8.536;2023-05-07T06:36:12;18.30;99.90
19174;DHT22;9719;49.322;8.536;2023-05-07T06:41:15;18.30;99.90
19174;DHT22;9719;49.322;8.536;2023-05-07T06:46:17;18.40;99.90
19174;DHT22;9719;49.322;8.536;2023-05-07T06:51:19;18.70;99.90
19174;DHT22;9719;49.322;8.536;2023-05-07T06:56:22;19.10;99.90
19174;DHT22;9719;49.322;8.536;2023-05-07T07:01:23;19.30;99.90
19174;DHT22;9719;49.322;8.536;2023-05-07T07:06:25;19.40;99.90
19174;DHT22;9719;49.322;8.536;2023-05-07T07:11:31;19.60;99.90
19174;DHT22;9719;49.322;8.536;2023-05-07T07:16:32;19.80;99.90
19174;DHT22;9719;49.322;8.536;2023-05-07T07:21:34;20.00;99.90
19174;DHT22;9719;49.322;8.536;2023-05-07T07:26:37;20.40;99.90
19174;DHT22;9719;49.322;8.536;2023-05-07T07:31:40;20.90;99.90
19174;DHT22;9719;49.322;8.536;2023-05-07T07:36:41;21.10;99.90
19174;DHT22;9719;49.322;8.536;2023-05-07T07:41:44;21.40;99.90
19174;DHT22;9719;49.322;8.536;2023-05-07T07:46:46;21.50;99.90
19174;DHT22;9719;49.322;8.536;2023-05-07T07:51:48;21.70;99.90
19174;DHT22;9719;49.322;8.536;2023-05-07T07:56:51;21.90;99.90
19174;DHT22;9719;49.322;8.536;2023-05-07T08:01:53;22.20;99.90
19174;DHT22;9719;49.322;8.536;2023-05-07T08:06:57;22.60;99.90
19174;DHT22;9719;49.322;8.536;2023-05-07T08:12:00;22.80;99.90
19174;DHT22;9719;49.322;8.536;2023-05-07T08:17:01;22.90;99.90
19174;DHT22;9719;49.322;8.536;2023-05-07T08:22:03;23.30;99.90
19174;DHT22;9719;49.322;8.536;2023-05-07T08:27:07;23.70;99.90
19174;DHT22;9719;49.322;8.536;2023-05-07T08:32:08;23.80;99.90
19174;DHT22;9719;49.322;8.536;2023-05-07T08:37:10;23.80;99.90
19174;DHT22;9719;49.322;8.536;2023-05-07T08:42:16;23.80;99.90
19174;DHT22;9719;49.322;8.536;2023-05-07T08:47:18;23.80;99.90
19174;DHT22;9719;49.322;8.536;2023-05-07T08:52:20;23.70;99.90
19174;DHT22;9719;49.322;8.536;2023-05-07T08:57:23;23.70;99.90
19174;DHT22;9719;49.322;8.536;2023-05-07T09:02:25;24.10;99.90
19174;DHT22;9719;49.322;8.536;2023-05-07T09:07:28;24.30;99.90
19174;DHT22;9719;49.322;8.536;2023-05-07T09:12:32;24.60;99.90
19174;DHT22;9719;49.322;8.536;2023-05-07T09:17:35;25.10;99.80
19174;DHT22;9719;49.322;8.536;2023-05-07T09:22:37;25.30;96.50
19174;DHT22;9719;49.322;8.536;2023-05-07T09:27:41;25.40;94.60
19174;DHT22;9719;49.322;8.536;2023-05-07T09:32:43;25.60;94.30
19174;DHT22;9719;49.322;8.536;2023-05-07T09:37:45;25.70;95.00
19174;DHT22;9719;49.322;8.536;2023-05-07T09:42:48;25.90;95.20
19174;DHT22;9719;49.322;8.536;2023-05-07T09:47:54;26.00;94.20
19174;DHT22;9719;49.322;8.536;2023-05-07T09:52:56;25.90;93.80
19174;DHT22;9719;49.322;8.536;2023-05-07T09:58:00;25.90;92.10
19174;DHT22;9719;49.322;8.536;2023-05-07T10:03:03;25.90;90.60
19174;DHT22;9719;49.322;8.536;2023-05-07T10:08:06;26.00;91.70
19174;DHT22;9719;49.322;8.536;2023-05-07T10:13:10;26.30;91.70
19174;DHT22;9719;49.322;8.536;2023-05-07T10:18:12;26.40;90.30
19174;DHT22;9719;49.322;8.536;2023-05-07T10:23:19;26.40;86.70
19174;DHT22;9719;49.322;8.536;2023-05-07T10:28:24;26.50;84.60
19174;DHT22;9719;49.322;8.536;2023-05-07T10:33:29;26.70;83.40
19174;DHT22;9719;49.322;8.536;2023-05-07T10:38:31;26.70;82.70
19174;DHT22;9719;49.322;8.536;2023-05-07T10:43:44;26.80;82.20
19174;DHT22;9719;49.322;8.536;2023-05-07T10:49:11;26.90;81.00
19174;DHT22;9719;49.322;8.536;2023-05-07T10:54:20;27.00;78.10
19174;DHT22;9719;49.322;8.536;2023-05-07T10:59:36;27.20;77.70
19174;DHT22;9719;49.322;8.536;2023-05-07T11:04:44;27.50;77.90
19174;DHT22;9719;49.322;8.536;2023-05-07T11:10:03;27.80;77.40
19174;DHT22;9719;49.322;8.536;2023-05-07T11:15:07;28.00;75.00
19174;DHT22;9719;49.322;8.536;2023-05-07T11:20:09;28.30;74.30
19174;DHT22;9719;49.322;8.536;2023-05-07T11:25:17;28.60;73.30
19174;DHT22;9719;49.322;8.536;2023-05-07T11:30:21;29.10;71.40
19174;DHT22;9719;49.322;8.536;2023-05-07T11:35:23;29.50;72.00
19174;DHT22;9719;49.322;8.536;2023-05-07T11:40:25;30.00;71.40
19174;DHT22;9719;49.322;8.536;2023-05-07T11:45:28;30.30;69.60
19174;DHT22;9719;49.322;8.536;2023-05-07T11:50:30;30.30;66.40
19174;DHT22;9719;49.322;8.536;2023-05-07T11:55:31;30.20;64.50
19174;DHT22;9719;49.322;8.536;2023-05-07T12:00:34;30.40;64.20
19174;DHT22;9719;49.322;8.536;2023-05-07T12:05:36;30.60;64.20
19174;DHT22;9719;49.322;8.536;2023-05-07T12:10:42;30.80;64.20
19174;DHT22;9719;49.322;8.536;2023-05-07T12:57:50;29.80;59.70
19174;DHT22;9719;49.322;8.536;2023-05-07T13:03:00;29.90;60.30
19174;DHT22;9719;49.322;8.536;2023-05-07T13:08:01;29.80;60.00
19174;DHT22;9719;49.322;8.536;2023-05-07T13:13:03;29.60;60.60
19174;DHT22;9719;49.322;8.536;2023-05-07T13:18:06;29.50;60.20
19174;DHT22;9719;49.322;8.536;2023-05-07T13:23:08;29.20;60.30
19174;DHT22;9719;49.322;8.536;2023-05-07T13:28:09;29.00;60.60
19174;DHT22;9719;49.322;8.536;2023-05-07T13:33:13;28.70;60.30
19174;DHT22;9719;49.322;8.536;2023-05-07T13:38:15;28.40;61.10
19174;DHT22;9719;49.322;8.536;2023-05-07T13:43:17;28.20;61.60
19174;DHT22;9719;49.322;8.536;2023-05-07T13:48:20;28.10;62.20
19174;DHT22;9719;49.322;8.536;2023-05-07T13:53:22;28.20;63.10
19174;DHT22;9719;49.322;8.536;2023-05-07T13:58:23;28.10;62.30
19174;DHT22;9719;49.322;8.536;2023-05-07T14:03:26;28.00;62.60
19174;DHT22;9719;49.322;8.536;2023-05-07T14:08:28;27.80;66.30
19174;DHT22;9719;49.322;8.536;2023-05-07T14:13:30;26.90;68.00
19174;DHT22;9719;49.322;8.536;2023-05-07T14:18:33;26.10;67.80
19174;DHT22;9719;49.322;8.536;2023-05-07T14:23:37;25.40;74.50
19174;DHT22;9719;49.322;8.536;2023-05-07T14:28:38;24.60;77.70
19174;DHT22;9719;49.322;8.536;2023-05-07T14:33:42;23.80;82.10
19174;DHT22;9719;49.322;8.536;2023-05-07T14:38:44;23.10;86.90
19174;DHT22;9719;49.322;8.536;2023-05-07T14:43:46;22.10;93.00
19174;DHT22;9719;49.322;8.536;2023-05-07T14:48:51;21.20;97.20
19174;DHT22;9719;49.322;8.536;2023-05-07T14:53:54;20.70;99.90
19174;DHT22;9719;49.322;8.536;2023-05-07T14:58:55;20.00;99.90
19174;DHT22;9719;49.322;8.536;2023-05-07T15:03:59;19.60;99.90
19174;DHT22;9719;49.322;8.536;2023-05-07T15:09:01;19.30;99.90
19174;DHT22;9719;49.322;8.536;2023-05-07T15:14:03;19.10;99.90
19174;DHT22;9719;49.322;8.536;2023-05-07T15:19:06;18.90;99.90
19174;DHT22;9719;49.322;8.536;2023-05-07T15:24:08;18.80;99.90
19174;DHT22;9719;49.322;8.536;2023-05-07T15:29:09;18.70;99.90
19174;DHT22;9719;49.322;8.536;2023-05-07T15:34:12;18.70;99.90
19174;DHT22;9719;49.322;8.536;2023-05-07T15:39:15;18.70;99.90
19174;DHT22;9719;49.322;8.536;2023-05-07T15:44:17;18.60;99.90
19174;DHT22;9719;49.322;8.536;2023-05-07T15:49:20;18.60;99.90
19174;DHT22;9719;49.322;8.536;2023-05-07T15:54:22;18.60;99.90
19174;DHT22;9719;49.322;8.536;2023-05-07T15:59:24;18.60;99.90
19174;DHT22;9719;49.322;8.536;2023-05-07T16:04:27;18.50;99.90
19174;DHT22;9719;49.322;8.536;2023-05-07T16:09:29;18.50;99.90
19174;DHT22;9719;49.322;8.536;2023-05-07T16:14:31;18.50;99.90
19174;DHT22;9719;49.322;8.536;2023-05-07T16:19:34;18.50;99.90
19174;DHT22;9719;49.322;8.536;2023-05-07T16:24:35;18.40;99.90
19174;DHT22;9719;49.322;8.536;2023-05-07T16:29:37;18.40;99.90
19174;DHT22;9719;49.322;8.536;2023-05-07T16:34:40;18.40;99.90
19174;DHT22;9719;49.322;8.536;2023-05-07T16:39:42;18.30;99.90
19174;DHT22;9719;49.322;8.536;2023-05-07T16:44:44;18.20;99.90
19174;DHT22;9719;49.322;8.536;2023-05-07T16:49:47;18.20;99.90
19174;DHT22;9719;49.322;8.536;2023-05-07T16:54:49;18.10;99.90
19174;DHT22;9719;49.322;8.536;2023-05-07T16:59:51;18.10;99.90
19174;DHT22;9719;49.322;8.536;2023-05-07T17:04:54;18.20;99.90
19174;DHT22;9719;49.322;8.536;2023-05-07T17:09:56;18.20;99.90
19174;DHT22;9719;49.322;8.536;2023-05-07T17:14:57;18.20;99.90
19174;DHT22;9719;49.322;8.536;2023-05-07T17:20:00;18.20;99.90
19174;DHT22;9719;49.322;8.536;2023-05-07T17:25:03;18.20;99.90
19174;DHT22;9719;49.322;8.536;2023-05-07T17:30:05;18.10;99.90
19174;DHT22;9719;49.322;8.536;2023-05-07T17:35:09;18.10;99.90
19174;DHT22;9719;49.322;8.536;2023-05-07T17:40:11;18.10;99.90
19174;DHT22;9719;49.322;8.536;2023-05-07T17:45:13;18.10;99.90
19174;DHT22;9719;49.322;8.536;2023-05-07T17:50:16;18.10;99.90
19174;DHT22;9719;49.322;8.536;2023-05-07T17:55:18;18.00;99.90
19174;DHT22;9719;49.322;8.536;2023-05-07T18:00:20;18.00;99.90
19174;DHT22;9719;49.322;8.536;2023-05-07T18:05:23;18.00;99.90
19174;DHT22;9719;49.322;8.536;2023-05-07T18:10:25;18.00;99.90
19174;DHT22;9719;49.322;8.536;2023-05-07T18:15:27;18.00;99.90
19174;DHT22;9719;49.322;8.536;2023-05-07T18:20:30;18.10;99.90
19174;DHT22;9719;49.322;8.536;2023-05-07T18:25:31;18.10;99.90
19174;DHT22;9719;49.322;8.536;2023-05-07T18:30:33;18.10;99.90
19174;DHT22;9719;49.322;8.536;2023-05-07T18:35:36;18.10;99.90
19174;DHT22;9719;49.322;8.536;2023-05-07T18:40:38;18.10;99.90
19174;DHT22;9719;49.322;8.536;2023-05-07T18:45:46;18.10;99.90
19174;DHT22;9719;49.322;8.536;2023-05-07T18:50:49;18.10;99.90
19174;DHT22;9719;49.322;8.536;2023-05-07T18:55:51;18.10;99.90
19174;DHT22;9719;49.322;8.536;2023-05-07T19:00:53;18.10;99.90
19174;DHT22;9719;49.322;8.536;2023-05-07T19:05:56;18.00;99.90
19174;DHT22;9719;49.322;8.536;2023-05-07T19:10:58;18.00;99.90
19174;DHT22;9719;49.322;8.536;2023-05-07T19:15:59;18.00;99.90
19174;DHT22;9719;49.322;8.536;2023-05-07T19:21:03;18.00;99.90
19174;DHT22;9719;49.322;8.536;2023-05-07T19:26:05;18.00;99.90
19174;DHT22;9719;49.322;8.536;2023-05-07T19:31:06;18.00;99.90
19174;DHT22;9719;49.322;8.536;2023-05-07T19:36:09;18.00;99.90
19174;DHT22;9719;49.322;8.536;2023-05-07T19:41:11;18.10;99.90
19174;DHT22;9719;49.322;8.536;2023-05-07T19:46:13;18.10;99.90
19174;DHT22;9719;49.322;8.536;2023-05-07T19:51:17;18.00;99.90
19174;DHT22;9719;49.322;8.536;2023-05-07T19:56:18;18.00;99.90
19174;DHT22;9719;49.322;8.536;2023-05-07T20:01:21;18.00;99.90
19174;DHT22;9719;49.322;8.536;2023-05-07T20:06:25;18.00;99.90
19174;DHT22;9719;49.322;8.536;2023-05-07T20:11:26;18.00;99.90
19174;DHT22;9719;49.322;8.536;2023-05-07T20:16:28;17.90;99.90
19174;DHT22;9719;49.322;8.536;2023-05-07T20:21:31;17.90;99.90
19174;DHT22;9719;49.322;8.536;2023-05-07T20:26:33;17.90;99.90
19174;DHT22;9719;49.322;8.536;2023-05-07T20:31:34;17.90;99.90
19174;DHT22;9719;49.322;8.536;2023-05-07T20:36:37;17.80;99.90
19174;DHT22;9719;49.322;8.536;2023-05-07T20:41:39;17.80;99.90
19174;DHT22;9719;49.322;8.536;2023-05-07T20:46:41;17.80;99.90
19174;DHT22;9719;49.322;8.536;2023-05-07T20:51:45;17.80;99.90
19174;DHT22;9719;49.322;8.536;2023-05-07T20:56:47;17.80;99.90
19174;DHT22;9719;49.322;8.536;2023-05-07T21:01:48;17.70;99.90
19174;DHT22;9719;49.322;8.536;2023-05-07T21:06:51;17.70;99.90
19174;DHT22;9719;49.322;8.536;2023-05-07T21:11:53;17.70;99.90
19174;DHT22;9719;49.322;8.536;2023-05-07T21:16:55;17.60;99.90
19174;DHT22;9719;49.322;8.536;2023-05-07T21:22:00;17.60;99.90
19174;DHT22;9719;49.322;8.536;2023-05-07T21:27:02;17.50;99.90
19174;DHT22;9719;49.322;8.536;2023-05-07T21:32:04;17.50;99.90
19174;DHT22;9719;49.322;8.536;2023-05-07T21:37:07;17.50;99.90
19174;DHT22;9719;49.322;8.536;2023-05-07T21:42:09;17.50;99.90
19174;DHT22;9719;49.322;8.536;2023-05-07T21:47:10;17.50;99.90
19174;DHT22;9719;49.322;8.536;2023-05-07T21:52:14;17.60;99.90
19174;DHT22;9719;49.322;8.536;2023-05-07T21:57:16;17.60;99.90
19174;DHT22;9719;49.322;8.536;2023-05-07T22:02:18;17.60;99.90
19174;DHT22;9719;49.322;8.536;2023-05-07T22:07:21;17.70;99.90
19174;DHT22;9719;49.322;8.536;2023-05-07T22:12:22;17.70;99.90
19174;DHT22;9719;49.322;8.536;2023-05-07T22:17:24;17.70;99.90
19174;DHT22;9719;49.322;8.536;2023-05-07T22:22:27;17.70;99.90
19174;DHT22;9719;49.322;8.536;2023-05-07T22:27:29;17.70;99.90
19174;DHT22;9719;49.322;8.536;2023-05-07T22:32:31;17.70;99.90
19174;DHT22;9719;49.322;8.536;2023-05-07T22:37:34;17.60;99.90
19174;DHT22;9719;49.322;8.536;2023-05-07T22:42:36;17.50;99.90
19174;DHT22;9719;49.322;8.536;2023-05-07T22:47:38;17.50;99.90
19174;DHT22;9719;49.322;8.536;2023-05-07T22:52:41;17.50;99.90
19174;DHT22;9719;49.322;8.536;2023-05-07T22:57:42;17.50;99.90
19174;DHT22;9719;49.322;8.536;2023-05-07T23:02:44;17.60;99.90
19174;DHT22;9719;49.322;8.536;2023-05-07T23:07:47;17.60;99.90
19174;DHT22;9719;49.322;8.536;2023-05-07T23:12:49;17.60;99.90
19174;DHT22;9719;49.322;8.536;2023-05-07T23:17:51;17.60;99.90
19174;DHT22;9719;49.322;8.536;2023-05-07T23:22:54;17.60;99.90
19174;DHT22;9719;49.322;8.536;2023-05-07T23:27:56;17.60;99.90
19174;DHT22;9719;49.322;8.536;2023-05-07T23:32:57;17.60;99.90
19174;DHT22;9719;49.322;8.536;2023-05-07T23:38:00;17.60;99.90
19174;DHT22;9719;49.322;8.536;2023-05-07T23:43:02;17.50;99.90
19174;DHT22;9719;49.322;8.536;2023-05-07T23:48:04;17.50;99.90
19174;DHT22;9719;49.322;8.536;2023-05-07T23:53:07;17.50;99.90
19174;DHT22;9719;49.322;8.536;2023-05-07T23:58:10;17.50;99.90
